sensor_id;sensor_type;location;lat;lon;timestamp;temperature;humidity
5508;DHT22;2776;51.046;6.772;2022-08-03T00:02:02;20.60;99.90
5508;DHT22;2776;51.046;6.772;2022-08-03T00:04:30;20.60;99.90
5508;DHT22;2776;51.046;6.772;2022-08-03T00:06:57;20.50;99.90
5508;DHT22;2776;51.046;6.772;2022-08-03T00:09:24;20.50;99.90
5508;DHT22;2776;51.046;6.772;2022-08-03T00:11:51;20.50;99.90
5508;DHT22;2776;51.046;6.772;2022-08-03T00:14:17;20.40;99.90
5508;DHT22;2776;51.046;6.772;2022-08-03T00:16:44;20.40;99.90
5508;DHT22;2776;51.046;6.772;2022-08-03T00:19:11;20.40;99.90
5508;DHT22;2776;51.046;6.772;2022-08-03T00:21:39;20.30;99.90
5508;DHT22;2776;51.046;6.772;2022-08-03T00:24:06;20.30;99.90
5508;DHT22;2776;51.046;6.772;2022-08-03T00:26:33;20.30;99.90
5508;DHT22;2776;51.046;6.772;2022-08-03T00:28:59;20.30;99.90
5508;DHT22;2776;51.046;6.772;2022-08-03T00:31:27;20.30;99.90
5508;DHT22;2776;51.046;6.772;2022-08-03T00:33:53;20.30;99.90
5508;DHT22;2776;51.046;6.772;2022-08-03T00:36:20;20.30;99.90
5508;DHT22;2776;51.046;6.772;2022-08-03T00:38:49;20.30;99.90
5508;DHT22;2776;51.046;6.772;2022-08-03T00:41:15;20.30;99.90
5508;DHT22;2776;51.046;6.772;2022-08-03T00:43:42;20.30;99.90
5508;DHT22;2776;51.046;6.772;2022-08-03T00:46:09;20.20;99.90
5508;DHT22;2776;51.046;6.772;2022-08-03T00:48:36;20.20;99.90
5508;DHT22;2776;51.046;6.772;2022-08-03T00:51:03;20.20;99.90
5508;DHT22;2776;51.046;6.772;2022-08-03T00:53:31;20.30;99.90
5508;DHT22;2776;51.046;6.772;2022-08-03T00:56:01;20.30;99.90
5508;DHT22;2776;51.046;6.772;2022-08-03T00:58:28;20.30;99.90
5508;DHT22;2776;51.046;6.772;2022-08-03T01:00:55;20.20;99.90
5508;DHT22;2776;51.046;6.772;2022-08-03T01:03:21;20.20;99.90
5508;DHT22;2776;51.046;6.772;2022-08-03T01:05:52;20.20;99.90
5508;DHT22;2776;51.046;6.772;2022-08-03T01:08:27;20.30;99.90
5508;DHT22;2776;51.046;6.772;2022-08-03T01:11:04;20.20;99.90
5508;DHT22;2776;51.046;6.772;2022-08-03T01:13:38;20.20;99.90
5508;DHT22;2776;51.046;6.772;2022-08-03T01:16:11;20.10;99.90
5508;DHT22;2776;51.046;6.772;2022-08-03T01:18:45;20.10;99.90
5508;DHT22;2776;51.046;6.772;2022-08-03T01:21:17;20.10;99.90
5508;DHT22;2776;51.046;6.772;2022-08-03T01:23:58;20.10;99.90
5508;DHT22;2776;51.046;6.772;2022-08-03T01:26:47;20.10;99.90
5508;DHT22;2776;51.046;6.772;2022-08-03T01:29:38;20.10;99.90
5508;DHT22;2776;51.046;6.772;2022-08-03T01:32:10;20.00;99.90
5508;DHT22;2776;51.046;6.772;2022-08-03T01:34:42;20.00;99.90
5508;DHT22;2776;51.046;6.772;2022-08-03T01:37:10;19.90;99.90
5508;DHT22;2776;51.046;6.772;2022-08-03T01:39:38;19.90;99.90
5508;DHT22;2776;51.046;6.772;2022-08-03T01:42:07;19.90;99.90
5508;DHT22;2776;51.046;6.772;2022-08-03T01:44:40;19.80;99.90
5508;DHT22;2776;51.046;6.772;2022-08-03T01:47:07;19.90;99.90
5508;DHT22;2776;51.046;6.772;2022-08-03T01:49:38;19.80;99.90
5508;DHT22;2776;51.046;6.772;2022-08-03T01:52:06;19.80;99.90
5508;DHT22;2776;51.046;6.772;2022-08-03T01:54:35;19.70;99.90
5508;DHT22;2776;51.046;6.772;2022-08-03T01:57:03;19.80;99.90
5508;DHT22;2776;51.046;6.772;2022-08-03T01:59:33;19.80;99.90
5508;DHT22;2776;51.046;6.772;2022-08-03T02:02:02;19.80;99.90
5508;DHT22;2776;51.046;6.772;2022-08-03T02:04:30;19.80;99.90
5508;DHT22;2776;51.046;6.772;2022-08-03T02:06:57;19.70;99.90
5508;DHT22;2776;51.046;6.772;2022-08-03T02:09:26;19.60;99.90
5508;DHT22;2776;51.046;6.772;2022-08-03T02:11:54;19.60;99.90
5508;DHT22;2776;51.046;6.772;2022-08-03T02:14:22;19.50;99.90
5508;DHT22;2776;51.046;6.772;2022-08-03T02:16:50;19.40;99.90
5508;DHT22;2776;51.046;6.772;2022-08-03T02:19:18;19.30;99.90
5508;DHT22;2776;51.046;6.772;2022-08-03T02:21:46;19.30;99.90
5508;DHT22;2776;51.046;6.772;2022-08-03T02:24:14;19.30;99.90
5508;DHT22;2776;51.046;6.772;2022-08-03T02:26:41;19.30;99.90
5508;DHT22;2776;51.046;6.772;2022-08-03T02:29:15;19.30;99.90
5508;DHT22;2776;51.046;6.772;2022-08-03T02:31:44;19.30;99.90
5508;DHT22;2776;51.046;6.772;2022-08-03T02:34:13;19.30;99.90
5508;DHT22;2776;51.046;6.772;2022-08-03T02:36:45;19.20;99.90
5508;DHT22;2776;51.046;6.772;2022-08-03T02:39:18;19.10;99.90
5508;DHT22;2776;51.046;6.772;2022-08-03T02:41:48;19.10;99.90
5508;DHT22;2776;51.046;6.772;2022-08-03T02:44:19;19.00;99.90
5508;DHT22;2776;51.046;6.772;2022-08-03T02:46:48;19.00;99.90
5508;DHT22;2776;51.046;6.772;2022-08-03T02:49:19;18.90;99.90
5508;DHT22;2776;51.046;6.772;2022-08-03T02:51:49;18.90;99.90
5508;DHT22;2776;51.046;6.772;2022-08-03T02:54:19;18.80;99.90
5508;DHT22;2776;51.046;6.772;2022-08-03T02:56:47;18.80;99.90
5508;DHT22;2776;51.046;6.772;2022-08-03T02:59:16;18.70;99.90
5508;DHT22;2776;51.046;6.772;2022-08-03T03:01:44;18.70;99.90
5508;DHT22;2776;51.046;6.772;2022-08-03T03:04:12;18.70;99.90
5508;DHT22;2776;51.046;6.772;2022-08-03T03:06:40;18.70;99.90
5508;DHT22;2776;51.046;6.772;2022-08-03T03:09:08;18.70;99.90
5508;DHT22;2776;51.046;6.772;2022-08-03T03:11:38;18.60;99.90
5508;DHT22;2776;51.046;6.772;2022-08-03T03:14:06;18.70;99.90
5508;DHT22;2776;51.046;6.772;2022-08-03T03:16:35;18.70;99.90
5508;DHT22;2776;51.046;6.772;2022-08-03T03:19:02;18.70;99.90
5508;DHT22;2776;51.046;6.772;2022-08-03T03:21:30;18.70;99.90
5508;DHT22;2776;51.046;6.772;2022-08-03T03:23:58;18.60;99.90
5508;DHT22;2776;51.046;6.772;2022-08-03T03:26:27;18.60;99.90
5508;DHT22;2776;51.046;6.772;2022-08-03T03:28:54;18.60;99.90
5508;DHT22;2776;51.046;6.772;2022-08-03T03:31:21;18.50;99.90
5508;DHT22;2776;51.046;6.772;2022-08-03T03:33:48;18.50;99.90
5508;DHT22;2776;51.046;6.772;2022-08-03T03:36:15;18.50;99.90
5508;DHT22;2776;51.046;6.772;2022-08-03T03:38:43;18.40;99.90
5508;DHT22;2776;51.046;6.772;2022-08-03T03:41:10;18.40;99.90
5508;DHT22;2776;51.046;6.772;2022-08-03T03:43:38;18.30;99.90
5508;DHT22;2776;51.046;6.772;2022-08-03T03:46:05;18.30;99.90
5508;DHT22;2776;51.046;6.772;2022-08-03T03:48:32;18.30;99.90
5508;DHT22;2776;51.046;6.772;2022-08-03T03:50:59;18.30;99.90
5508;DHT22;2776;51.046;6.772;2022-08-03T03:53:26;18.20;99.90
5508;DHT22;2776;51.046;6.772;2022-08-03T03:55:53;18.20;99.90
5508;DHT22;2776;51.046;6.772;2022-08-03T03:58:20;18.20;99.90
5508;DHT22;2776;51.046;6.772;2022-08-03T04:00:48;18.20;99.90
5508;DHT22;2776;51.046;6.772;2022-08-03T04:03:15;18.20;99.90
5508;DHT22;2776;51.046;6.772;2022-08-03T04:05:42;18.20;99.90
5508;DHT22;2776;51.046;6.772;2022-08-03T04:08:27;18.30;99.90
5508;DHT22;2776;51.046;6.772;2022-08-03T04:11:15;18.30;99.90
5508;DHT22;2776;51.046;6.772;2022-08-03T04:13:46;18.30;99.90
5508;DHT22;2776;51.046;6.772;2022-08-03T04:16:19;18.30;99.90
5508;DHT22;2776;51.046;6.772;2022-08-03T04:18:58;18.30;99.90
5508;DHT22;2776;51.046;6.772;2022-08-03T04:21:27;18.30;99.90
5508;DHT22;2776;51.046;6.772;2022-08-03T04:23:59;18.40;99.90
5508;DHT22;2776;51.046;6.772;2022-08-03T04:26:28;18.40;99.90
5508;DHT22;2776;51.046;6.772;2022-08-03T04:28:56;18.40;99.90
5508;DHT22;2776;51.046;6.772;2022-08-03T04:31:26;18.50;99.90
5508;DHT22;2776;51.046;6.772;2022-08-03T04:33:54;18.50;99.90
5508;DHT22;2776;51.046;6.772;2022-08-03T04:36:25;18.60;99.90
5508;DHT22;2776;51.046;6.772;2022-08-03T04:38:55;18.60;99.90
5508;DHT22;2776;51.046;6.772;2022-08-03T04:41:24;18.60;99.90
5508;DHT22;2776;51.046;6.772;2022-08-03T04:43:53;18.70;99.90
5508;DHT22;2776;51.046;6.772;2022-08-03T04:46:22;18.80;99.90
5508;DHT22;2776;51.046;6.772;2022-08-03T04:48:51;18.80;99.90
5508;DHT22;2776;51.046;6.772;2022-08-03T04:51:18;18.90;99.90
5508;DHT22;2776;51.046;6.772;2022-08-03T04:53:45;19.00;99.90
5508;DHT22;2776;51.046;6.772;2022-08-03T04:56:12;19.10;99.90
5508;DHT22;2776;51.046;6.772;2022-08-03T04:58:39;19.20;99.90
5508;DHT22;2776;51.046;6.772;2022-08-03T05:01:06;19.30;99.90
5508;DHT22;2776;51.046;6.772;2022-08-03T05:03:33;19.40;99.90
5508;DHT22;2776;51.046;6.772;2022-08-03T05:06:01;19.40;99.90
5508;DHT22;2776;51.046;6.772;2022-08-03T05:08:28;19.50;99.90
5508;DHT22;2776;51.046;6.772;2022-08-03T05:10:55;19.60;99.90
5508;DHT22;2776;51.046;6.772;2022-08-03T05:13:22;19.70;99.90
5508;DHT22;2776;51.046;6.772;2022-08-03T05:15:49;19.80;99.90
5508;DHT22;2776;51.046;6.772;2022-08-03T05:18:16;19.90;99.90
5508;DHT22;2776;51.046;6.772;2022-08-03T05:20:42;19.80;99.90
5508;DHT22;2776;51.046;6.772;2022-08-03T05:23:11;19.80;99.90
5508;DHT22;2776;51.046;6.772;2022-08-03T05:25:37;19.90;99.90
5508;DHT22;2776;51.046;6.772;2022-08-03T05:28:04;20.00;99.90
5508;DHT22;2776;51.046;6.772;2022-08-03T05:30:31;20.10;99.90
5508;DHT22;2776;51.046;6.772;2022-08-03T05:32:58;20.30;99.90
5508;DHT22;2776;51.046;6.772;2022-08-03T05:35:25;20.90;99.90
5508;DHT22;2776;51.046;6.772;2022-08-03T05:37:53;21.80;99.90
5508;DHT22;2776;51.046;6.772;2022-08-03T05:40:21;22.90;99.90
5508;DHT22;2776;51.046;6.772;2022-08-03T05:42:48;23.60;99.90
5508;DHT22;2776;51.046;6.772;2022-08-03T05:45:15;24.10;99.90
5508;DHT22;2776;51.046;6.772;2022-08-03T05:47:43;24.40;99.90
5508;DHT22;2776;51.046;6.772;2022-08-03T05:50:09;24.50;99.90
5508;DHT22;2776;51.046;6.772;2022-08-03T05:52:37;24.50;99.90
5508;DHT22;2776;51.046;6.772;2022-08-03T05:55:05;24.50;99.90
5508;DHT22;2776;51.046;6.772;2022-08-03T05:57:33;24.40;99.90
5508;DHT22;2776;51.046;6.772;2022-08-03T06:00:01;24.40;99.90
5508;DHT22;2776;51.046;6.772;2022-08-03T06:02:29;24.20;99.90
5508;DHT22;2776;51.046;6.772;2022-08-03T06:04:56;24.20;99.90
5508;DHT22;2776;51.046;6.772;2022-08-03T06:07:23;24.20;99.90
5508;DHT22;2776;51.046;6.772;2022-08-03T06:09:50;24.20;99.90
5508;DHT22;2776;51.046;6.772;2022-08-03T06:12:17;24.30;99.90
5508;DHT22;2776;51.046;6.772;2022-08-03T06:14:45;24.30;99.90
5508;DHT22;2776;51.046;6.772;2022-08-03T06:17:12;24.40;99.90
5508;DHT22;2776;51.046;6.772;2022-08-03T06:19:39;24.50;99.90
5508;DHT22;2776;51.046;6.772;2022-08-03T06:22:06;24.80;99.90
5508;DHT22;2776;51.046;6.772;2022-08-03T06:24:32;25.00;99.90
5508;DHT22;2776;51.046;6.772;2022-08-03T06:26:59;25.40;99.90
5508;DHT22;2776;51.046;6.772;2022-08-03T06:29:26;25.70;99.90
5508;DHT22;2776;51.046;6.772;2022-08-03T06:31:54;26.00;99.90
5508;DHT22;2776;51.046;6.772;2022-08-03T06:34:21;26.10;99.90
5508;DHT22;2776;51.046;6.772;2022-08-03T06:36:48;26.30;99.90
5508;DHT22;2776;51.046;6.772;2022-08-03T06:39:15;26.30;99.90
5508;DHT22;2776;51.046;6.772;2022-08-03T06:41:43;26.50;99.90
5508;DHT22;2776;51.046;6.772;2022-08-03T06:44:10;26.50;99.90
5508;DHT22;2776;51.046;6.772;2022-08-03T06:46:37;26.50;99.90
5508;DHT22;2776;51.046;6.772;2022-08-03T06:49:05;26.50;99.90
5508;DHT22;2776;51.046;6.772;2022-08-03T06:51:32;26.60;99.90
5508;DHT22;2776;51.046;6.772;2022-08-03T06:53:59;26.60;99.90
5508;DHT22;2776;51.046;6.772;2022-08-03T06:56:26;26.70;99.90
5508;DHT22;2776;51.046;6.772;2022-08-03T06:58:53;26.70;99.90
5508;DHT22;2776;51.046;6.772;2022-08-03T07:01:19;26.70;99.90
5508;DHT22;2776;51.046;6.772;2022-08-03T07:03:46;26.60;99.90
5508;DHT22;2776;51.046;6.772;2022-08-03T07:06:14;26.50;99.90
5508;DHT22;2776;51.046;6.772;2022-08-03T07:08:41;26.50;99.90
5508;DHT22;2776;51.046;6.772;2022-08-03T07:11:08;26.60;99.90
5508;DHT22;2776;51.046;6.772;2022-08-03T07:13:35;26.50;99.90
5508;DHT22;2776;51.046;6.772;2022-08-03T07:16:01;26.60;99.90
5508;DHT22;2776;51.046;6.772;2022-08-03T07:18:28;26.60;99.90
5508;DHT22;2776;51.046;6.772;2022-08-03T07:20:55;26.80;99.90
5508;DHT22;2776;51.046;6.772;2022-08-03T07:23:23;26.80;99.90
5508;DHT22;2776;51.046;6.772;2022-08-03T07:25:51;27.00;99.90
5508;DHT22;2776;51.046;6.772;2022-08-03T07:28:17;27.10;99.90
5508;DHT22;2776;51.046;6.772;2022-08-03T07:30:44;27.30;99.90
5508;DHT22;2776;51.046;6.772;2022-08-03T07:33:11;27.40;99.90
5508;DHT22;2776;51.046;6.772;2022-08-03T07:35:38;27.70;99.90
5508;DHT22;2776;51.046;6.772;2022-08-03T07:38:05;27.90;99.90
5508;DHT22;2776;51.046;6.772;2022-08-03T07:40:33;28.10;99.90
5508;DHT22;2776;51.046;6.772;2022-08-03T07:43:00;28.10;99.90
5508;DHT22;2776;51.046;6.772;2022-08-03T07:45:28;28.30;99.90
5508;DHT22;2776;51.046;6.772;2022-08-03T07:47:55;28.30;99.90
5508;DHT22;2776;51.046;6.772;2022-08-03T07:50:22;28.30;99.90
5508;DHT22;2776;51.046;6.772;2022-08-03T07:52:49;28.30;99.90
5508;DHT22;2776;51.046;6.772;2022-08-03T07:55:19;28.40;99.90
5508;DHT22;2776;51.046;6.772;2022-08-03T07:57:59;28.20;98.80
5508;DHT22;2776;51.046;6.772;2022-08-03T08:00:25;28.40;98.60
5508;DHT22;2776;51.046;6.772;2022-08-03T08:02:52;28.50;99.10
5508;DHT22;2776;51.046;6.772;2022-08-03T08:05:19;28.50;98.70
5508;DHT22;2776;51.046;6.772;2022-08-03T08:07:46;28.60;97.70
5508;DHT22;2776;51.046;6.772;2022-08-03T08:10:13;28.70;98.30
5508;DHT22;2776;51.046;6.772;2022-08-03T08:12:40;28.80;97.30
5508;DHT22;2776;51.046;6.772;2022-08-03T08:15:08;28.90;97.60
5508;DHT22;2776;51.046;6.772;2022-08-03T08:17:43;28.90;96.40
5508;DHT22;2776;51.046;6.772;2022-08-03T08:20:15;29.00;99.10
5508;DHT22;2776;51.046;6.772;2022-08-03T08:22:41;28.80;97.90
5508;DHT22;2776;51.046;6.772;2022-08-03T08:25:08;28.80;96.80
5508;DHT22;2776;51.046;6.772;2022-08-03T08:27:43;28.80;97.50
5508;DHT22;2776;51.046;6.772;2022-08-03T08:30:13;28.80;97.60
5508;DHT22;2776;51.046;6.772;2022-08-03T08:32:40;28.90;95.20
5508;DHT22;2776;51.046;6.772;2022-08-03T08:35:08;28.70;94.00
5508;DHT22;2776;51.046;6.772;2022-08-03T08:37:36;28.70;94.10
5508;DHT22;2776;51.046;6.772;2022-08-03T08:40:05;28.70;95.80
5508;DHT22;2776;51.046;6.772;2022-08-03T08:42:32;28.80;95.10
5508;DHT22;2776;51.046;6.772;2022-08-03T08:44:59;29.00;92.60
5508;DHT22;2776;51.046;6.772;2022-08-03T08:47:30;29.10;91.70
5508;DHT22;2776;51.046;6.772;2022-08-03T08:49:58;29.40;91.30
5508;DHT22;2776;51.046;6.772;2022-08-03T08:52:27;29.40;90.20
5508;DHT22;2776;51.046;6.772;2022-08-03T08:54:56;29.50;89.00
5508;DHT22;2776;51.046;6.772;2022-08-03T08:57:26;29.50;88.30
5508;DHT22;2776;51.046;6.772;2022-08-03T08:59:55;29.60;91.10
5508;DHT22;2776;51.046;6.772;2022-08-03T09:02:22;29.60;92.70
5508;DHT22;2776;51.046;6.772;2022-08-03T09:04:51;29.60;93.50
5508;DHT22;2776;51.046;6.772;2022-08-03T09:07:18;29.60;91.50
5508;DHT22;2776;51.046;6.772;2022-08-03T09:09:45;29.60;87.20
5508;DHT22;2776;51.046;6.772;2022-08-03T09:12:12;29.70;88.20
5508;DHT22;2776;51.046;6.772;2022-08-03T09:14:39;29.80;92.10
5508;DHT22;2776;51.046;6.772;2022-08-03T09:17:06;29.80;86.30
5508;DHT22;2776;51.046;6.772;2022-08-03T09:19:34;29.90;88.80
5508;DHT22;2776;51.046;6.772;2022-08-03T09:22:10;29.90;87.70
5508;DHT22;2776;51.046;6.772;2022-08-03T09:24:38;30.00;82.00
5508;DHT22;2776;51.046;6.772;2022-08-03T09:27:19;30.00;78.10
5508;DHT22;2776;51.046;6.772;2022-08-03T09:29:47;30.00;80.00
5508;DHT22;2776;51.046;6.772;2022-08-03T09:32:14;30.10;78.60
5508;DHT22;2776;51.046;6.772;2022-08-03T09:34:41;30.10;77.20
5508;DHT22;2776;51.046;6.772;2022-08-03T09:37:14;30.10;77.20
5508;DHT22;2776;51.046;6.772;2022-08-03T09:39:41;30.10;77.20
5508;DHT22;2776;51.046;6.772;2022-08-03T09:42:09;30.20;77.40
5508;DHT22;2776;51.046;6.772;2022-08-03T09:44:37;30.20;74.00
5508;DHT22;2776;51.046;6.772;2022-08-03T09:47:06;30.30;81.30
5508;DHT22;2776;51.046;6.772;2022-08-03T09:49:34;30.30;74.90
5508;DHT22;2776;51.046;6.772;2022-08-03T09:52:11;30.30;76.50
5508;DHT22;2776;51.046;6.772;2022-08-03T09:54:40;30.30;76.80
5508;DHT22;2776;51.046;6.772;2022-08-03T09:57:07;30.40;78.80
5508;DHT22;2776;51.046;6.772;2022-08-03T09:59:34;30.50;77.70
5508;DHT22;2776;51.046;6.772;2022-08-03T10:02:01;30.60;76.30
5508;DHT22;2776;51.046;6.772;2022-08-03T10:04:27;30.80;74.80
5508;DHT22;2776;51.046;6.772;2022-08-03T10:07:02;30.80;73.10
5508;DHT22;2776;51.046;6.772;2022-08-03T10:09:29;30.90;74.30
5508;DHT22;2776;51.046;6.772;2022-08-03T10:12:06;30.80;72.50
5508;DHT22;2776;51.046;6.772;2022-08-03T10:14:33;30.90;70.70
5508;DHT22;2776;51.046;6.772;2022-08-03T10:17:01;30.90;73.50
5508;DHT22;2776;51.046;6.772;2022-08-03T10:19:28;30.90;71.30
5508;DHT22;2776;51.046;6.772;2022-08-03T10:21:56;31.00;70.60
5508;DHT22;2776;51.046;6.772;2022-08-03T10:24:28;31.00;65.20
5508;DHT22;2776;51.046;6.772;2022-08-03T10:27:01;31.00;65.80
5508;DHT22;2776;51.046;6.772;2022-08-03T10:29:31;31.10;66.90
5508;DHT22;2776;51.046;6.772;2022-08-03T10:32:03;31.20;64.30
5508;DHT22;2776;51.046;6.772;2022-08-03T10:34:37;31.20;62.80
5508;DHT22;2776;51.046;6.772;2022-08-03T10:37:09;31.30;65.40
5508;DHT22;2776;51.046;6.772;2022-08-03T10:39:36;31.40;64.40
5508;DHT22;2776;51.046;6.772;2022-08-03T10:42:20;31.50;68.50
5508;DHT22;2776;51.046;6.772;2022-08-03T10:44:50;31.70;64.50
5508;DHT22;2776;51.046;6.772;2022-08-03T10:47:19;31.70;58.90
5508;DHT22;2776;51.046;6.772;2022-08-03T10:49:47;31.70;57.00
5508;DHT22;2776;51.046;6.772;2022-08-03T10:52:14;31.80;57.40
5508;DHT22;2776;51.046;6.772;2022-08-03T10:54:48;31.80;56.90
5508;DHT22;2776;51.046;6.772;2022-08-03T10:57:44;31.80;56.20
5508;DHT22;2776;51.046;6.772;2022-08-03T11:00:12;31.80;56.90
5508;DHT22;2776;51.046;6.772;2022-08-03T11:03:02;31.90;53.70
5508;DHT22;2776;51.046;6.772;2022-08-03T11:05:32;31.90;53.90
5508;DHT22;2776;51.046;6.772;2022-08-03T11:08:31;31.90;53.80
5508;DHT22;2776;51.046;6.772;2022-08-03T11:11:01;31.90;51.30
5508;DHT22;2776;51.046;6.772;2022-08-03T11:13:30;31.90;53.30
5508;DHT22;2776;51.046;6.772;2022-08-03T11:16:01;32.00;54.90
5508;DHT22;2776;51.046;6.772;2022-08-03T11:18:28;32.00;54.60
5508;DHT22;2776;51.046;6.772;2022-08-03T11:20:56;32.10;53.90
5508;DHT22;2776;51.046;6.772;2022-08-03T11:23:43;32.20;51.90
5508;DHT22;2776;51.046;6.772;2022-08-03T11:26:15;32.30;51.40
5508;DHT22;2776;51.046;6.772;2022-08-03T11:28:45;32.30;52.00
5508;DHT22;2776;51.046;6.772;2022-08-03T11:34:18;32.30;52.90
5508;DHT22;2776;51.046;6.772;2022-08-03T11:37:20;32.30;52.20
5508;DHT22;2776;51.046;6.772;2022-08-03T11:39:49;32.30;52.40
5508;DHT22;2776;51.046;6.772;2022-08-03T11:42:39;32.30;50.60
5508;DHT22;2776;51.046;6.772;2022-08-03T11:45:08;32.20;49.10
5508;DHT22;2776;51.046;6.772;2022-08-03T11:47:38;32.20;51.10
5508;DHT22;2776;51.046;6.772;2022-08-03T11:50:06;32.30;50.30
5508;DHT22;2776;51.046;6.772;2022-08-03T11:52:38;32.40;48.60
5508;DHT22;2776;51.046;6.772;2022-08-03T11:55:10;32.40;50.80
5508;DHT22;2776;51.046;6.772;2022-08-03T11:57:37;32.40;51.30
5508;DHT22;2776;51.046;6.772;2022-08-03T12:00:21;32.40;50.80
5508;DHT22;2776;51.046;6.772;2022-08-03T12:02:59;32.30;48.40
5508;DHT22;2776;51.046;6.772;2022-08-03T12:05:44;32.10;48.80
5508;DHT22;2776;51.046;6.772;2022-08-03T12:08:12;32.20;48.30
5508;DHT22;2776;51.046;6.772;2022-08-03T12:10:43;32.30;48.30
5508;DHT22;2776;51.046;6.772;2022-08-03T12:13:11;32.30;48.30
5508;DHT22;2776;51.046;6.772;2022-08-03T12:15:39;32.30;52.00
5508;DHT22;2776;51.046;6.772;2022-08-03T12:18:14;32.30;50.20
5508;DHT22;2776;51.046;6.772;2022-08-03T12:20:41;32.40;47.60
5508;DHT22;2776;51.046;6.772;2022-08-03T12:23:09;32.40;49.00
5508;DHT22;2776;51.046;6.772;2022-08-03T12:25:37;32.50;47.90
5508;DHT22;2776;51.046;6.772;2022-08-03T12:28:07;32.60;50.80
5508;DHT22;2776;51.046;6.772;2022-08-03T12:30:34;32.70;47.00
5508;DHT22;2776;51.046;6.772;2022-08-03T12:33:13;32.70;46.00
5508;DHT22;2776;51.046;6.772;2022-08-03T12:35:40;32.70;46.10
5508;DHT22;2776;51.046;6.772;2022-08-03T12:38:06;32.80;47.50
5508;DHT22;2776;51.046;6.772;2022-08-03T12:40:33;32.90;46.80
5508;DHT22;2776;51.046;6.772;2022-08-03T12:43:00;33.00;49.50
5508;DHT22;2776;51.046;6.772;2022-08-03T12:45:28;33.20;46.20
5508;DHT22;2776;51.046;6.772;2022-08-03T12:47:58;33.30;46.50
5508;DHT22;2776;51.046;6.772;2022-08-03T12:50:30;33.40;47.00
5508;DHT22;2776;51.046;6.772;2022-08-03T12:52:58;33.30;47.40
5508;DHT22;2776;51.046;6.772;2022-08-03T12:55:25;33.40;46.20
5508;DHT22;2776;51.046;6.772;2022-08-03T12:57:58;33.50;47.90
5508;DHT22;2776;51.046;6.772;2022-08-03T13:00:25;33.50;46.70
5508;DHT22;2776;51.046;6.772;2022-08-03T13:02:58;33.50;44.60
5508;DHT22;2776;51.046;6.772;2022-08-03T13:05:25;33.60;47.50
5508;DHT22;2776;51.046;6.772;2022-08-03T13:07:54;33.50;42.90
5508;DHT22;2776;51.046;6.772;2022-08-03T13:10:27;33.40;42.90
5508;DHT22;2776;51.046;6.772;2022-08-03T13:12:54;33.40;44.00
5508;DHT22;2776;51.046;6.772;2022-08-03T13:15:23;33.40;45.30
5508;DHT22;2776;51.046;6.772;2022-08-03T13:17:52;33.50;45.10
5508;DHT22;2776;51.046;6.772;2022-08-03T13:20:19;33.50;46.30
5508;DHT22;2776;51.046;6.772;2022-08-03T13:22:47;33.40;44.20
5508;DHT22;2776;51.046;6.772;2022-08-03T13:25:16;33.50;44.00
5508;DHT22;2776;51.046;6.772;2022-08-03T13:27:42;33.50;44.70
5508;DHT22;2776;51.046;6.772;2022-08-03T13:30:10;33.60;42.40
5508;DHT22;2776;51.046;6.772;2022-08-03T13:32:36;33.60;42.60
5508;DHT22;2776;51.046;6.772;2022-08-03T13:35:04;33.60;41.90
5508;DHT22;2776;51.046;6.772;2022-08-03T13:37:32;33.60;41.90
5508;DHT22;2776;51.046;6.772;2022-08-03T13:39:59;33.70;42.80
5508;DHT22;2776;51.046;6.772;2022-08-03T13:42:29;33.70;43.10
5508;DHT22;2776;51.046;6.772;2022-08-03T13:44:57;33.70;43.60
5508;DHT22;2776;51.046;6.772;2022-08-03T13:47:24;33.80;42.00
5508;DHT22;2776;51.046;6.772;2022-08-03T13:49:51;33.80;43.70
5508;DHT22;2776;51.046;6.772;2022-08-03T13:52:18;33.80;44.50
5508;DHT22;2776;51.046;6.772;2022-08-03T13:54:45;33.90;41.30
5508;DHT22;2776;51.046;6.772;2022-08-03T13:57:12;33.80;41.30
5508;DHT22;2776;51.046;6.772;2022-08-03T13:59:40;33.70;41.10
5508;DHT22;2776;51.046;6.772;2022-08-03T14:02:08;33.70;40.80
5508;DHT22;2776;51.046;6.772;2022-08-03T14:04:35;33.70;42.60
5508;DHT22;2776;51.046;6.772;2022-08-03T14:07:01;33.70;42.00
5508;DHT22;2776;51.046;6.772;2022-08-03T14:09:28;33.70;40.70
5508;DHT22;2776;51.046;6.772;2022-08-03T14:11:55;33.70;40.30
5508;DHT22;2776;51.046;6.772;2022-08-03T14:14:22;33.70;40.90
5508;DHT22;2776;51.046;6.772;2022-08-03T14:16:50;33.70;40.70
5508;DHT22;2776;51.046;6.772;2022-08-03T14:19:16;33.60;39.70
5508;DHT22;2776;51.046;6.772;2022-08-03T14:21:43;33.70;40.10
5508;DHT22;2776;51.046;6.772;2022-08-03T14:24:10;33.80;41.80
5508;DHT22;2776;51.046;6.772;2022-08-03T14:26:37;33.80;41.80
5508;DHT22;2776;51.046;6.772;2022-08-03T14:29:04;33.80;41.70
5508;DHT22;2776;51.046;6.772;2022-08-03T14:31:31;33.90;40.10
5508;DHT22;2776;51.046;6.772;2022-08-03T14:33:59;33.90;40.30
5508;DHT22;2776;51.046;6.772;2022-08-03T14:36:25;33.90;40.70
5508;DHT22;2776;51.046;6.772;2022-08-03T14:38:52;33.90;40.00
5508;DHT22;2776;51.046;6.772;2022-08-03T14:41:19;34.00;41.20
5508;DHT22;2776;51.046;6.772;2022-08-03T14:43:46;34.00;39.10
5508;DHT22;2776;51.046;6.772;2022-08-03T14:46:14;34.00;39.60
5508;DHT22;2776;51.046;6.772;2022-08-03T14:48:40;34.00;39.00
5508;DHT22;2776;51.046;6.772;2022-08-03T14:51:08;33.90;39.00
5508;DHT22;2776;51.046;6.772;2022-08-03T14:53:36;33.90;38.50
5508;DHT22;2776;51.046;6.772;2022-08-03T14:56:03;33.80;38.40
5508;DHT22;2776;51.046;6.772;2022-08-03T14:58:30;33.90;38.60
5508;DHT22;2776;51.046;6.772;2022-08-03T15:00:56;33.90;39.60
5508;DHT22;2776;51.046;6.772;2022-08-03T15:03:23;33.90;40.80
5508;DHT22;2776;51.046;6.772;2022-08-03T15:05:51;33.90;39.10
5508;DHT22;2776;51.046;6.772;2022-08-03T15:08:19;34.00;41.40
5508;DHT22;2776;51.046;6.772;2022-08-03T15:10:46;34.00;40.70
5508;DHT22;2776;51.046;6.772;2022-08-03T15:13:13;34.00;39.60
5508;DHT22;2776;51.046;6.772;2022-08-03T15:15:40;33.90;41.00
5508;DHT22;2776;51.046;6.772;2022-08-03T15:18:07;34.00;41.90
5508;DHT22;2776;51.046;6.772;2022-08-03T15:20:34;34.00;41.10
5508;DHT22;2776;51.046;6.772;2022-08-03T15:23:01;34.00;41.00
5508;DHT22;2776;51.046;6.772;2022-08-03T15:25:29;34.00;41.70
5508;DHT22;2776;51.046;6.772;2022-08-03T15:27:56;34.00;40.20
5508;DHT22;2776;51.046;6.772;2022-08-03T15:30:23;33.90;38.60
5508;DHT22;2776;51.046;6.772;2022-08-03T15:32:49;33.70;39.60
5508;DHT22;2776;51.046;6.772;2022-08-03T15:35:16;33.70;38.20
5508;DHT22;2776;51.046;6.772;2022-08-03T15:37:43;33.70;38.00
5508;DHT22;2776;51.046;6.772;2022-08-03T15:40:11;33.60;39.20
5508;DHT22;2776;51.046;6.772;2022-08-03T15:42:39;33.60;41.00
5508;DHT22;2776;51.046;6.772;2022-08-03T15:45:07;33.60;41.10
5508;DHT22;2776;51.046;6.772;2022-08-03T15:47:34;33.60;41.80
5508;DHT22;2776;51.046;6.772;2022-08-03T15:50:00;33.60;41.20
5508;DHT22;2776;51.046;6.772;2022-08-03T15:52:27;33.70;39.90
5508;DHT22;2776;51.046;6.772;2022-08-03T15:54:54;33.70;39.50
5508;DHT22;2776;51.046;6.772;2022-08-03T15:57:21;33.80;37.30
5508;DHT22;2776;51.046;6.772;2022-08-03T15:59:50;33.90;38.30
5508;DHT22;2776;51.046;6.772;2022-08-03T16:02:17;33.90;36.90
5508;DHT22;2776;51.046;6.772;2022-08-03T16:04:44;34.00;35.80
5508;DHT22;2776;51.046;6.772;2022-08-03T16:07:11;34.00;35.60
5508;DHT22;2776;51.046;6.772;2022-08-03T16:09:40;33.90;35.60
5508;DHT22;2776;51.046;6.772;2022-08-03T16:12:08;34.10;38.70
5508;DHT22;2776;51.046;6.772;2022-08-03T16:14:34;34.00;36.40
5508;DHT22;2776;51.046;6.772;2022-08-03T16:17:03;34.00;37.20